sensor_id;sensor_type;location;lat;lon;timestamp;P1;durP1;ratioP1;P2;durP2;ratioP2
10605;SDS011;5350;42.698;23.148;2023-01-31T00:00:09;4.93;;;2.60;;
10605;SDS011;5350;42.698;23.148;2023-01-31T00:02:36;9.63;;;3.50;;
10605;SDS011;5350;42.698;23.148;2023-01-31T00:05:03;7.70;;;4.40;;
10605;SDS011;5350;42.698;23.148;2023-01-31T00:07:30;9.43;;;5.10;;
10605;SDS011;5350;42.698;23.148;2023-01-31T00:09:58;10.00;;;5.40;;
10605;SDS011;5350;42.698;23.148;2023-01-31T00:12:25;10.90;;;5.57;;
10605;SDS011;5350;42.698;23.148;2023-01-31T00:14:52;15.13;;;8.23;;
10605;SDS011;5350;42.698;23.148;2023-01-31T00:17:18;11.80;;;6.90;;
10605;SDS011;5350;42.698;23.148;2023-01-31T00:19:45;18.50;;;7.43;;
10605;SDS011;5350;42.698;23.148;2023-01-31T00:22:12;17.57;;;9.53;;
10605;SDS011;5350;42.698;23.148;2023-01-31T00:24:38;14.23;;;8.83;;
10605;SDS011;5350;42.698;23.148;2023-01-31T00:27:06;16.30;;;9.47;;
10605;SDS011;5350;42.698;23.148;2023-01-31T00:29:33;19.37;;;9.93;;
10605;SDS011;5350;42.698;23.148;2023-01-31T00:32:00;21.70;;;10.77;;
10605;SDS011;5350;42.698;23.148;2023-01-31T00:34:28;21.77;;;10.70;;
10605;SDS011;5350;42.698;23.148;2023-01-31T00:36:54;12.20;;;7.07;;
10605;SDS011;5350;42.698;23.148;2023-01-31T00:39:21;13.20;;;8.03;;
10605;SDS011;5350;42.698;23.148;2023-01-31T00:41:48;11.13;;;6.77;;
10605;SDS011;5350;42.698;23.148;2023-01-31T00:44:16;12.47;;;6.93;;
10605;SDS011;5350;42.698;23.148;2023-01-31T00:46:43;9.53;;;5.60;;
10605;SDS011;5350;42.698;23.148;2023-01-31T00:49:10;9.67;;;5.13;;
10605;SDS011;5350;42.698;23.148;2023-01-31T00:51:36;9.40;;;7.00;;
10605;SDS011;5350;42.698;23.148;2023-01-31T00:54:03;14.00;;;7.77;;
10605;SDS011;5350;42.698;23.148;2023-01-31T00:56:30;13.63;;;7.60;;
10605;SDS011;5350;42.698;23.148;2023-01-31T00:58:56;16.70;;;8.23;;
10605;SDS011;5350;42.698;23.148;2023-01-31T01:01:26;15.20;;;8.27;;
10605;SDS011;5350;42.698;23.148;2023-01-31T01:03:54;12.37;;;6.43;;
10605;SDS011;5350;42.698;23.148;2023-01-31T01:06:22;13.00;;;6.87;;
10605;SDS011;5350;42.698;23.148;2023-01-31T01:08:49;15.30;;;7.23;;
10605;SDS011;5350;42.698;23.148;2023-01-31T01:11:17;20.67;;;10.90;;
10605;SDS011;5350;42.698;23.148;2023-01-31T01:13:45;23.87;;;12.93;;
10605;SDS011;5350;42.698;23.148;2023-01-31T01:16:12;16.73;;;9.90;;
10605;SDS011;5350;42.698;23.148;2023-01-31T01:18:42;14.53;;;8.07;;
10605;SDS011;5350;42.698;23.148;2023-01-31T01:21:11;16.97;;;8.30;;
10605;SDS011;5350;42.698;23.148;2023-01-31T01:23:40;20.63;;;10.40;;
10605;SDS011;5350;42.698;23.148;2023-01-31T01:26:12;16.90;;;9.53;;
10605;SDS011;5350;42.698;23.148;2023-01-31T01:28:39;17.40;;;9.73;;
10605;SDS011;5350;42.698;23.148;2023-01-31T01:31:06;16.33;;;8.90;;
10605;SDS011;5350;42.698;23.148;2023-01-31T01:33:33;16.20;;;8.30;;
10605;SDS011;5350;42.698;23.148;2023-01-31T01:36:02;14.73;;;7.80;;
10605;SDS011;5350;42.698;23.148;2023-01-31T01:38:32;16.70;;;7.23;;
10605;SDS011;5350;42.698;23.148;2023-01-31T01:40:59;7.30;;;4.37;;
10605;SDS011;5350;42.698;23.148;2023-01-31T01:43:38;8.47;;;4.33;;
10605;SDS011;5350;42.698;23.148;2023-01-31T01:46:06;7.07;;;4.40;;
10605;SDS011;5350;42.698;23.148;2023-01-31T01:48:36;8.73;;;5.30;;
10605;SDS011;5350;42.698;23.148;2023-01-31T01:51:05;10.17;;;5.47;;
10605;SDS011;5350;42.698;23.148;2023-01-31T01:53:33;7.57;;;5.03;;
10605;SDS011;5350;42.698;23.148;2023-01-31T01:56:05;6.83;;;4.67;;
10605;SDS011;5350;42.698;23.148;2023-01-31T01:58:35;8.13;;;4.20;;
10605;SDS011;5350;42.698;23.148;2023-01-31T02:01:08;9.13;;;4.40;;
10605;SDS011;5350;42.698;23.148;2023-01-31T02:03:37;9.73;;;5.57;;
10605;SDS011;5350;42.698;23.148;2023-01-31T02:06:07;8.57;;;4.97;;
10605;SDS011;5350;42.698;23.148;2023-01-31T02:08:35;9.27;;;5.30;;
10605;SDS011;5350;42.698;23.148;2023-01-31T02:11:05;8.97;;;4.50;;
10605;SDS011;5350;42.698;23.148;2023-01-31T02:13:37;7.97;;;4.33;;
10605;SDS011;5350;42.698;23.148;2023-01-31T02:16:06;7.53;;;4.40;;
10605;SDS011;5350;42.698;23.148;2023-01-31T02:18:33;7.77;;;4.20;;
10605;SDS011;5350;42.698;23.148;2023-01-31T02:27:24;8.23;;;4.53;;
10605;SDS011;5350;42.698;23.148;2023-01-31T02:33:03;8.73;;;4.80;;
10605;SDS011;5350;42.698;23.148;2023-01-31T02:35:42;10.57;;;5.67;;
10605;SDS011;5350;42.698;23.148;2023-01-31T02:38:24;8.43;;;4.47;;
10605;SDS011;5350;42.698;23.148;2023-01-31T02:41:03;7.87;;;5.00;;
10605;SDS011;5350;42.698;23.148;2023-01-31T02:43:42;6.10;;;2.83;;
10605;SDS011;5350;42.698;23.148;2023-01-31T02:46:33;8.20;;;4.70;;
10605;SDS011;5350;42.698;23.148;2023-01-31T02:49:11;8.40;;;4.77;;
10605;SDS011;5350;42.698;23.148;2023-01-31T02:51:58;7.53;;;4.53;;
10605;SDS011;5350;42.698;23.148;2023-01-31T02:54:41;8.20;;;4.10;;
10605;SDS011;5350;42.698;23.148;2023-01-31T02:57:31;9.73;;;4.67;;
10605;SDS011;5350;42.698;23.148;2023-01-31T02:59:59;8.33;;;5.00;;
10605;SDS011;5350;42.698;23.148;2023-01-31T03:02:27;8.57;;;4.10;;
10605;SDS011;5350;42.698;23.148;2023-01-31T03:04:55;8.83;;;3.70;;
10605;SDS011;5350;42.698;23.148;2023-01-31T03:07:22;9.10;;;4.83;;
10605;SDS011;5350;42.698;23.148;2023-01-31T03:09:55;5.30;;;3.37;;
10605;SDS011;5350;42.698;23.148;2023-01-31T03:12:35;8.97;;;4.93;;
10605;SDS011;5350;42.698;23.148;2023-01-31T03:18:36;8.87;;;4.93;;
10605;SDS011;5350;42.698;23.148;2023-01-31T03:21:11;5.23;;;3.27;;
10605;SDS011;5350;42.698;23.148;2023-01-31T03:23:41;6.90;;;3.73;;
10605;SDS011;5350;42.698;23.148;2023-01-31T03:26:10;5.23;;;3.70;;
10605;SDS011;5350;42.698;23.148;2023-01-31T03:28:38;8.40;;;5.10;;
10605;SDS011;5350;42.698;23.148;2023-01-31T03:31:09;8.97;;;4.60;;
10605;SDS011;5350;42.698;23.148;2023-01-31T03:33:42;8.13;;;4.40;;
10605;SDS011;5350;42.698;23.148;2023-01-31T03:36:16;8.53;;;5.03;;
10605;SDS011;5350;42.698;23.148;2023-01-31T03:38:52;7.93;;;3.97;;
10605;SDS011;5350;42.698;23.148;2023-01-31T03:41:26;7.40;;;3.23;;
10605;SDS011;5350;42.698;23.148;2023-01-31T03:43:58;10.70;;;5.63;;
10605;SDS011;5350;42.698;23.148;2023-01-31T03:46:30;9.33;;;5.23;;
10605;SDS011;5350;42.698;23.148;2023-01-31T03:49:01;8.00;;;5.23;;
10605;SDS011;5350;42.698;23.148;2023-01-31T03:51:34;8.73;;;4.87;;
10605;SDS011;5350;42.698;23.148;2023-01-31T03:54:03;7.50;;;4.43;;
10605;SDS011;5350;42.698;23.148;2023-01-31T03:56:35;7.23;;;4.27;;
10605;SDS011;5350;42.698;23.148;2023-01-31T03:59:07;9.37;;;5.53;;
10605;SDS011;5350;42.698;23.148;2023-01-31T04:01:38;5.37;;;3.20;;
10605;SDS011;5350;42.698;23.148;2023-01-31T04:04:10;11.07;;;5.53;;
10605;SDS011;5350;42.698;23.148;2023-01-31T04:06:42;11.17;;;5.27;;
10605;SDS011;5350;42.698;23.148;2023-01-31T04:09:09;9.43;;;5.07;;
10605;SDS011;5350;42.698;23.148;2023-01-31T04:11:37;7.37;;;4.43;;
10605;SDS011;5350;42.698;23.148;2023-01-31T04:14:06;9.47;;;5.33;;
10605;SDS011;5350;42.698;23.148;2023-01-31T04:16:33;8.73;;;4.37;;
10605;SDS011;5350;42.698;23.148;2023-01-31T04:19:00;9.57;;;5.67;;
10605;SDS011;5350;42.698;23.148;2023-01-31T04:21:26;13.60;;;6.93;;
10605;SDS011;5350;42.698;23.148;2023-01-31T04:23:54;10.17;;;5.90;;
10605;SDS011;5350;42.698;23.148;2023-01-31T04:26:21;10.80;;;5.67;;
10605;SDS011;5350;42.698;23.148;2023-01-31T04:28:48;12.13;;;6.13;;
10605;SDS011;5350;42.698;23.148;2023-01-31T04:31:14;12.30;;;6.93;;
10605;SDS011;5350;42.698;23.148;2023-01-31T04:33:41;10.97;;;6.27;;
10605;SDS011;5350;42.698;23.148;2023-01-31T04:36:08;8.17;;;4.20;;
10605;SDS011;5350;42.698;23.148;2023-01-31T04:38:35;7.80;;;3.80;;
10605;SDS011;5350;42.698;23.148;2023-01-31T04:41:03;8.33;;;4.83;;
10605;SDS011;5350;42.698;23.148;2023-01-31T04:43:30;7.83;;;3.33;;
10605;SDS011;5350;42.698;23.148;2023-01-31T04:45:56;10.50;;;5.53;;
10605;SDS011;5350;42.698;23.148;2023-01-31T04:48:23;10.00;;;5.03;;
10605;SDS011;5350;42.698;23.148;2023-01-31T04:50:50;8.30;;;4.80;;
10605;SDS011;5350;42.698;23.148;2023-01-31T04:53:17;11.70;;;6.00;;
10605;SDS011;5350;42.698;23.148;2023-01-31T04:55:46;5.80;;;3.53;;
10605;SDS011;5350;42.698;23.148;2023-01-31T04:58:14;7.73;;;5.10;;
10605;SDS011;5350;42.698;23.148;2023-01-31T05:00:40;7.10;;;3.47;;
10605;SDS011;5350;42.698;23.148;2023-01-31T05:03:09;7.27;;;4.07;;
10605;SDS011;5350;42.698;23.148;2023-01-31T05:05:35;10.60;;;4.73;;
10605;SDS011;5350;42.698;23.148;2023-01-31T05:08:02;12.30;;;6.43;;
10605;SDS011;5350;42.698;23.148;2023-01-31T05:10:29;9.87;;;5.73;;
10605;SDS011;5350;42.698;23.148;2023-01-31T05:12:56;7.57;;;4.93;;
10605;SDS011;5350;42.698;23.148;2023-01-31T05:15:24;10.73;;;5.40;;
10605;SDS011;5350;42.698;23.148;2023-01-31T05:17:51;8.63;;;5.33;;
10605;SDS011;5350;42.698;23.148;2023-01-31T05:20:18;11.17;;;5.73;;
10605;SDS011;5350;42.698;23.148;2023-01-31T05:22:45;7.23;;;3.93;;
10605;SDS011;5350;42.698;23.148;2023-01-31T05:25:13;9.30;;;4.50;;
10605;SDS011;5350;42.698;23.148;2023-01-31T05:27:40;5.97;;;3.83;;
10605;SDS011;5350;42.698;23.148;2023-01-31T05:30:09;7.67;;;3.93;;
10605;SDS011;5350;42.698;23.148;2023-01-31T05:32:38;7.40;;;4.07;;
10605;SDS011;5350;42.698;23.148;2023-01-31T05:35:05;8.83;;;3.80;;
10605;SDS011;5350;42.698;23.148;2023-01-31T05:37:32;6.10;;;3.43;;
10605;SDS011;5350;42.698;23.148;2023-01-31T05:39:59;5.03;;;3.33;;
10605;SDS011;5350;42.698;23.148;2023-01-31T05:42:26;7.03;;;3.87;;
10605;SDS011;5350;42.698;23.148;2023-01-31T05:44:52;8.17;;;4.03;;
10605;SDS011;5350;42.698;23.148;2023-01-31T05:47:19;5.83;;;3.47;;
10605;SDS011;5350;42.698;23.148;2023-01-31T05:49:48;7.07;;;4.73;;
10605;SDS011;5350;42.698;23.148;2023-01-31T05:52:15;10.33;;;4.73;;
10605;SDS011;5350;42.698;23.148;2023-01-31T05:54:42;8.20;;;4.60;;
10605;SDS011;5350;42.698;23.148;2023-01-31T05:57:09;8.33;;;4.27;;
10605;SDS011;5350;42.698;23.148;2023-01-31T05:59:36;6.77;;;4.43;;
10605;SDS011;5350;42.698;23.148;2023-01-31T06:02:02;8.30;;;4.93;;
10605;SDS011;5350;42.698;23.148;2023-01-31T06:04:29;7.47;;;4.13;;
10605;SDS011;5350;42.698;23.148;2023-01-31T06:06:57;10.07;;;5.60;;
10605;SDS011;5350;42.698;23.148;2023-01-31T06:09:24;12.07;;;6.33;;
10605;SDS011;5350;42.698;23.148;2023-01-31T06:11:50;9.43;;;5.60;;
10605;SDS011;5350;42.698;23.148;2023-01-31T06:14:17;9.53;;;5.90;;
10605;SDS011;5350;42.698;23.148;2023-01-31T06:16:44;8.73;;;4.97;;
10605;SDS011;5350;42.698;23.148;2023-01-31T06:19:11;9.03;;;6.23;;
10605;SDS011;5350;42.698;23.148;2023-01-31T06:21:37;12.67;;;6.63;;
10605;SDS011;5350;42.698;23.148;2023-01-31T06:24:06;9.50;;;6.17;;
10605;SDS011;5350;42.698;23.148;2023-01-31T06:26:33;5.97;;;3.97;;
10605;SDS011;5350;42.698;23.148;2023-01-31T06:29:00;8.30;;;5.13;;
10605;SDS011;5350;42.698;23.148;2023-01-31T06:31:26;8.43;;;5.63;;
10605;SDS011;5350;42.698;23.148;2023-01-31T06:33:53;9.13;;;5.53;;
10605;SDS011;5350;42.698;23.148;2023-01-31T06:36:19;7.90;;;4.90;;
10605;SDS011;5350;42.698;23.148;2023-01-31T06:38:49;7.57;;;5.33;;
10605;SDS011;5350;42.698;23.148;2023-01-31T06:41:18;10.17;;;5.30;;
10605;SDS011;5350;42.698;23.148;2023-01-31T06:43:45;9.50;;;5.93;;
10605;SDS011;5350;42.698;23.148;2023-01-31T06:46:12;9.43;;;5.67;;
10605;SDS011;5350;42.698;23.148;2023-01-31T06:48:39;7.87;;;2.97;;
10605;SDS011;5350;42.698;23.148;2023-01-31T06:51:06;5.67;;;3.47;;
10605;SDS011;5350;42.698;23.148;2023-01-31T06:53:32;8.33;;;4.97;;
10605;SDS011;5350;42.698;23.148;2023-01-31T06:55:59;7.33;;;5.10;;
10605;SDS011;5350;42.698;23.148;2023-01-31T06:58:27;6.57;;;4.07;;
10605;SDS011;5350;42.698;23.148;2023-01-31T07:00:54;7.60;;;4.07;;
10605;SDS011;5350;42.698;23.148;2023-01-31T07:03:20;11.00;;;6.87;;
10605;SDS011;5350;42.698;23.148;2023-01-31T07:05:47;7.50;;;5.43;;
10605;SDS011;5350;42.698;23.148;2023-01-31T07:08:14;8.60;;;5.13;;
10605;SDS011;5350;42.698;23.148;2023-01-31T07:10:40;6.57;;;4.27;;
10605;SDS011;5350;42.698;23.148;2023-01-31T07:13:07;7.47;;;4.57;;
10605;SDS011;5350;42.698;23.148;2023-01-31T07:15:35;9.83;;;5.63;;
10605;SDS011;5350;42.698;23.148;2023-01-31T07:18:02;9.33;;;5.30;;
10605;SDS011;5350;42.698;23.148;2023-01-31T07:20:30;8.53;;;4.43;;
10605;SDS011;5350;42.698;23.148;2023-01-31T07:22:57;10.93;;;5.83;;
10605;SDS011;5350;42.698;23.148;2023-01-31T07:25:25;13.13;;;8.77;;
10605;SDS011;5350;42.698;23.148;2023-01-31T07:27:54;13.53;;;7.70;;
10605;SDS011;5350;42.698;23.148;2023-01-31T07:30:21;9.30;;;5.87;;
10605;SDS011;5350;42.698;23.148;2023-01-31T07:32:50;8.07;;;5.60;;
10605;SDS011;5350;42.698;23.148;2023-01-31T07:35:16;12.83;;;7.17;;
10605;SDS011;5350;42.698;23.148;2023-01-31T07:37:43;12.37;;;9.17;;
10605;SDS011;5350;42.698;23.148;2023-01-31T07:40:10;7.77;;;5.03;;
10605;SDS011;5350;42.698;23.148;2023-01-31T07:42:39;10.87;;;6.23;;
10605;SDS011;5350;42.698;23.148;2023-01-31T07:45:06;9.80;;;5.47;;
10605;SDS011;5350;42.698;23.148;2023-01-31T07:47:35;8.63;;;5.73;;
10605;SDS011;5350;42.698;23.148;2023-01-31T07:50:04;8.63;;;5.23;;
10605;SDS011;5350;42.698;23.148;2023-01-31T07:52:31;9.87;;;5.60;;
10605;SDS011;5350;42.698;23.148;2023-01-31T07:54:58;15.17;;;9.47;;
10605;SDS011;5350;42.698;23.148;2023-01-31T07:57:25;10.97;;;6.67;;
10605;SDS011;5350;42.698;23.148;2023-01-31T07:59:51;15.90;;;9.93;;
10605;SDS011;5350;42.698;23.148;2023-01-31T08:02:18;8.47;;;4.97;;
10605;SDS011;5350;42.698;23.148;2023-01-31T08:05:15;9.63;;;6.23;;
10605;SDS011;5350;42.698;23.148;2023-01-31T08:07:41;8.60;;;4.83;;
10605;SDS011;5350;42.698;23.148;2023-01-31T08:10:09;8.60;;;5.07;;
10605;SDS011;5350;42.698;23.148;2023-01-31T08:12:36;8.50;;;5.80;;
10605;SDS011;5350;42.698;23.148;2023-01-31T08:15:03;9.80;;;6.10;;
10605;SDS011;5350;42.698;23.148;2023-01-31T08:17:30;9.70;;;6.23;;
10605;SDS011;5350;42.698;23.148;2023-01-31T08:19:57;11.50;;;7.73;;
10605;SDS011;5350;42.698;23.148;2023-01-31T08:22:25;9.13;;;4.50;;
10605;SDS011;5350;42.698;23.148;2023-01-31T08:24:52;10.30;;;6.47;;
10605;SDS011;5350;42.698;23.148;2023-01-31T08:27:18;11.50;;;6.70;;
10605;SDS011;5350;42.698;23.148;2023-01-31T08:29:45;7.77;;;5.33;;
10605;SDS011;5350;42.698;23.148;2023-01-31T08:32:12;7.20;;;4.20;;
10605;SDS011;5350;42.698;23.148;2023-01-31T08:34:38;6.50;;;4.63;;
10605;SDS011;5350;42.698;23.148;2023-01-31T08:37:05;8.67;;;5.70;;
10605;SDS011;5350;42.698;23.148;2023-01-31T08:39:33;7.97;;;5.07;;
10605;SDS011;5350;42.698;23.148;2023-01-31T08:42:00;5.07;;;3.53;;
10605;SDS011;5350;42.698;23.148;2023-01-31T08:44:26;6.30;;;3.97;;
10605;SDS011;5350;42.698;23.148;2023-01-31T08:46:53;8.33;;;5.30;;
10605;SDS011;5350;42.698;23.148;2023-01-31T08:49:20;5.40;;;4.10;;
10605;SDS011;5350;42.698;23.148;2023-01-31T08:51:46;10.07;;;5.93;;
10605;SDS011;5350;42.698;23.148;2023-01-31T08:54:13;6.07;;;4.17;;
10605;SDS011;5350;42.698;23.148;2023-01-31T08:56:41;4.97;;;3.67;;
10605;SDS011;5350;42.698;23.148;2023-01-31T08:59:09;6.30;;;3.83;;
10605;SDS011;5350;42.698;23.148;2023-01-31T09:01:36;6.23;;;3.63;;
10605;SDS011;5350;42.698;23.148;2023-01-31T09:04:02;6.13;;;3.73;;
10605;SDS011;5350;42.698;23.148;2023-01-31T09:06:29;1.97;;;1.70;;
10605;SDS011;5350;42.698;23.148;2023-01-31T09:08:56;5.40;;;3.87;;
10605;SDS011;5350;42.698;23.148;2023-01-31T09:11:23;7.23;;;4.50;;
10605;SDS011;5350;42.698;23.148;2023-01-31T09:13:54;8.00;;;1.97;;
10605;SDS011;5350;42.698;23.148;2023-01-31T09:16:21;3.03;;;2.40;;
10605;SDS011;5350;42.698;23.148;2023-01-31T09:18:47;3.93;;;2.70;;
10605;SDS011;5350;42.698;23.148;2023-01-31T09:21:16;6.10;;;3.70;;
10605;SDS011;5350;42.698;23.148;2023-01-31T09:23:44;3.43;;;2.77;;
10605;SDS011;5350;42.698;23.148;2023-01-31T09:26:11;5.07;;;3.37;;
10605;SDS011;5350;42.698;23.148;2023-01-31T09:28:39;3.20;;;2.10;;
10605;SDS011;5350;42.698;23.148;2023-01-31T09:31:09;3.97;;;3.13;;
10605;SDS011;5350;42.698;23.148;2023-01-31T09:33:37;3.17;;;2.40;;
10605;SDS011;5350;42.698;23.148;2023-01-31T09:36:04;4.33;;;2.83;;
10605;SDS011;5350;42.698;23.148;2023-01-31T09:38:34;2.57;;;1.80;;
10605;SDS011;5350;42.698;23.148;2023-01-31T09:41:03;4.93;;;3.77;;
10605;SDS011;5350;42.698;23.148;2023-01-31T09:43:31;4.00;;;3.07;;
10605;SDS011;5350;42.698;23.148;2023-01-31T09:46:04;3.67;;;2.77;;
10605;SDS011;5350;42.698;23.148;2023-01-31T09:48:35;4.37;;;2.83;;
10605;SDS011;5350;42.698;23.148;2023-01-31T09:51:05;5.30;;;3.20;;
10605;SDS011;5350;42.698;23.148;2023-01-31T09:53:32;3.13;;;2.80;;
10605;SDS011;5350;42.698;23.148;2023-01-31T09:56:06;3.97;;;2.43;;
10605;SDS011;5350;42.698;23.148;2023-01-31T09:58:45;3.83;;;2.87;;
10605;SDS011;5350;42.698;23.148;2023-01-31T10:01:22;4.63;;;3.17;;
10605;SDS011;5350;42.698;23.148;2023-01-31T10:04:07;2.97;;;2.30;;
10605;SDS011;5350;42.698;23.148;2023-01-31T10:06:47;3.50;;;3.10;;
10605;SDS011;5350;42.698;23.148;2023-01-31T10:09:20;2.93;;;2.20;;
10605;SDS011;5350;42.698;23.148;2023-01-31T10:11:55;3.87;;;2.00;;
10605;SDS011;5350;42.698;23.148;2023-01-31T10:14:28;1.80;;;1.60;;
10605;SDS011;5350;42.698;23.148;2023-01-31T10:17:06;3.17;;;2.30;;
10605;SDS011;5350;42.698;23.148;2023-01-31T10:19:41;3.43;;;2.10;;
10605;SDS011;5350;42.698;23.148;2023-01-31T10:22:14;10.87;;;5.33;;
10605;SDS011;5350;42.698;23.148;2023-01-31T10:24:46;2.03;;;1.67;;
10605;SDS011;5350;42.698;23.148;2023-01-31T10:27:18;3.37;;;2.60;;
10605;SDS011;5350;42.698;23.148;2023-01-31T10:29:56;3.80;;;2.77;;
10605;SDS011;5350;42.698;23.148;2023-01-31T10:32:27;11.20;;;5.70;;
10605;SDS011;5350;42.698;23.148;2023-01-31T10:35:00;3.67;;;3.13;;
10605;SDS011;5350;42.698;23.148;2023-01-31T10:37:31;3.07;;;2.33;;
10605;SDS011;5350;42.698;23.148;2023-01-31T10:40:03;3.47;;;3.17;;
10605;SDS011;5350;42.698;23.148;2023-01-31T10:42:38;3.03;;;2.63;;
10605;SDS011;5350;42.698;23.148;2023-01-31T10:45:10;3.00;;;1.73;;
10605;SDS011;5350;42.698;23.148;2023-01-31T10:47:44;2.37;;;1.77;;
10605;SDS011;5350;42.698;23.148;2023-01-31T10:50:17;2.47;;;2.17;;
10605;SDS011;5350;42.698;23.148;2023-01-31T10:53:03;2.93;;;2.07;;
10605;SDS011;5350;42.698;23.148;2023-01-31T10:55:44;3.00;;;1.80;;
10605;SDS011;5350;42.698;23.148;2023-01-31T10:58:18;3.60;;;3.30;;
10605;SDS011;5350;42.698;23.148;2023-01-31T11:00:47;3.70;;;3.27;;
10605;SDS011;5350;42.698;23.148;2023-01-31T11:03:15;1.70;;;1.20;;
10605;SDS011;5350;42.698;23.148;2023-01-31T11:05:45;1.53;;;1.30;;
10605;SDS011;5350;42.698;23.148;2023-01-31T11:08:25;2.23;;;1.80;;
10605;SDS011;5350;42.698;23.148;2023-01-31T11:10:57;2.13;;;1.50;;
10605;SDS011;5350;42.698;23.148;2023-01-31T11:13:31;2.00;;;1.80;;
10605;SDS011;5350;42.698;23.148;2023-01-31T11:15:58;2.47;;;1.90;;
10605;SDS011;5350;42.698;23.148;2023-01-31T11:18:28;4.30;;;3.13;;
10605;SDS011;5350;42.698;23.148;2023-01-31T11:20:59;2.30;;;2.03;;
10605;SDS011;5350;42.698;23.148;2023-01-31T11:23:28;1.67;;;1.40;;
10605;SDS011;5350;42.698;23.148;2023-01-31T11:25:57;2.57;;;2.20;;
10605;SDS011;5350;42.698;23.148;2023-01-31T11:28:26;2.73;;;2.37;;
10605;SDS011;5350;42.698;23.148;2023-01-31T11:30:59;2.30;;;2.10;;
10605;SDS011;5350;42.698;23.148;2023-01-31T11:33:36;3.03;;;1.67;;
10605;SDS011;5350;42.698;23.148;2023-01-31T11:36:07;3.83;;;1.67;;
10605;SDS011;5350;42.698;23.148;2023-01-31T11:38:35;3.50;;;3.20;;
10605;SDS011;5350;42.698;23.148;2023-01-31T11:41:06;2.73;;;2.40;;
10605;SDS011;5350;42.698;23.148;2023-01-31T11:44:04;2.60;;;2.27;;
10605;SDS011;5350;42.698;23.148;2023-01-31T11:46:37;3.13;;;2.47;;
10605;SDS011;5350;42.698;23.148;2023-01-31T11:49:12;2.93;;;2.00;;
10605;SDS011;5350;42.698;23.148;2023-01-31T11:51:45;5.13;;;3.30;;
10605;SDS011;5350;42.698;23.148;2023-01-31T11:54:15;1.63;;;1.53;;
10605;SDS011;5350;42.698;23.148;2023-01-31T11:56:45;2.47;;;2.27;;
10605;SDS011;5350;42.698;23.148;2023-01-31T11:59:13;3.17;;;2.70;;
10605;SDS011;5350;42.698;23.148;2023-01-31T12:01:45;2.00;;;1.80;;
10605;SDS011;5350;42.698;23.148;2023-01-31T12:04:15;3.63;;;2.53;;
10605;SDS011;5350;42.698;23.148;2023-01-31T12:06:55;2.50;;;1.83;;
10605;SDS011;5350;42.698;23.148;2023-01-31T12:09:26;2.97;;;1.77;;
10605;SDS011;5350;42.698;23.148;2023-01-31T12:11:55;2.43;;;2.17;;
10605;SDS011;5350;42.698;23.148;2023-01-31T12:14:25;1.90;;;1.80;;
10605;SDS011;5350;42.698;23.148;2023-01-31T12:17:02;2.07;;;1.80;;
10605;SDS011;5350;42.698;23.148;2023-01-31T12:19:32;3.20;;;2.20;;
10605;SDS011;5350;42.698;23.148;2023-01-31T12:22:11;1.77;;;1.60;;
10605;SDS011;5350;42.698;23.148;2023-01-31T12:24:46;1.80;;;1.70;;
10605;SDS011;5350;42.698;23.148;2023-01-31T12:27:28;2.10;;;1.67;;
10605;SDS011;5350;42.698;23.148;2023-01-31T12:32:58;1.60;;;1.43;;
10605;SDS011;5350;42.698;23.148;2023-01-31T12:35:40;1.60;;;1.10;;
10605;SDS011;5350;42.698;23.148;2023-01-31T12:38:19;1.53;;;1.20;;
10605;SDS011;5350;42.698;23.148;2023-01-31T12:40:56;1.20;;;1.20;;
10605;SDS011;5350;42.698;23.148;2023-01-31T12:43:41;1.50;;;1.40;;
10605;SDS011;5350;42.698;23.148;2023-01-31T12:46:22;1.30;;;1.00;;
10605;SDS011;5350;42.698;23.148;2023-01-31T12:49:16;2.67;;;1.83;;
10605;SDS011;5350;42.698;23.148;2023-01-31T12:51:56;2.67;;;1.47;;
10605;SDS011;5350;42.698;23.148;2023-01-31T12:54:39;1.90;;;1.60;;
10605;SDS011;5350;42.698;23.148;2023-01-31T12:57:23;1.57;;;1.43;;
10605;SDS011;5350;42.698;23.148;2023-01-31T13:00:00;0.70;;;0.70;;
10605;SDS011;5350;42.698;23.148;2023-01-31T13:02:39;1.37;;;1.17;;
10605;SDS011;5350;42.698;23.148;2023-01-31T13:05:15;1.50;;;0.97;;
10605;SDS011;5350;42.698;23.148;2023-01-31T13:07:49;1.77;;;1.07;;
10605;SDS011;5350;42.698;23.148;2023-01-31T13:10:27;2.53;;;1.67;;
10605;SDS011;5350;42.698;23.148;2023-01-31T13:13:00;0.93;;;0.87;;
10605;SDS011;5350;42.698;23.148;2023-01-31T13:15:31;2.20;;;1.80;;
10605;SDS011;5350;42.698;23.148;2023-01-31T13:18:08;2.00;;;1.47;;
10605;SDS011;5350;42.698;23.148;2023-01-31T13:20:38;1.40;;;0.70;;
10605;SDS011;5350;42.698;23.148;2023-01-31T13:23:10;1.63;;;1.10;;
10605;SDS011;5350;42.698;23.148;2023-01-31T13:25:45;2.50;;;0.80;;
10605;SDS011;5350;42.698;23.148;2023-01-31T13:28:17;3.13;;;1.23;;
10605;SDS011;5350;42.698;23.148;2023-01-31T13:30:49;1.10;;;0.80;;
10605;SDS011;5350;42.698;23.148;2023-01-31T13:33:23;1.77;;;1.27;;
10605;SDS011;5350;42.698;23.148;2023-01-31T13:35:58;1.93;;;1.30;;
10605;SDS011;5350;42.698;23.148;2023-01-31T13:38:33;1.90;;;1.00;;
10605;SDS011;5350;42.698;23.148;2023-01-31T13:41:04;3.20;;;1.37;;
10605;SDS011;5350;42.698;23.148;2023-01-31T13:43:36;2.03;;;1.53;;
10605;SDS011;5350;42.698;23.148;2023-01-31T13:46:04;1.30;;;1.20;;
10605;SDS011;5350;42.698;23.148;2023-01-31T13:48:35;2.23;;;2.03;;
10605;SDS011;5350;42.698;23.148;2023-01-31T13:51:07;1.70;;;1.43;;
10605;SDS011;5350;42.698;23.148;2023-01-31T13:53:43;2.97;;;1.57;;
10605;SDS011;5350;42.698;23.148;2023-01-31T13:56:17;2.23;;;1.50;;
10605;SDS011;5350;42.698;23.148;2023-01-31T13:58:47;1.50;;;1.13;;
10605;SDS011;5350;42.698;23.148;2023-01-31T14:01:17;1.90;;;0.97;;
10605;SDS011;5350;42.698;23.148;2023-01-31T14:15:52;2.90;;;1.50;;
10605;SDS011;5350;42.698;23.148;2023-01-31T14:18:36;1.90;;;1.43;;
10605;SDS011;5350;42.698;23.148;2023-01-31T14:24:22;2.77;;;1.17;;
10605;SDS011;5350;42.698;23.148;2023-01-31T14:30:28;2.43;;;2.00;;
10605;SDS011;5350;42.698;23.148;2023-01-31T14:33:03;2.50;;;1.60;;
10605;SDS011;5350;42.698;23.148;2023-01-31T14:35:42;1.93;;;1.63;;
10605;SDS011;5350;42.698;23.148;2023-01-31T14:38:22;2.93;;;1.50;;
10605;SDS011;5350;42.698;23.148;2023-01-31T14:41:02;2.00;;;1.50;;
10605;SDS011;5350;42.698;23.148;2023-01-31T14:43:40;1.77;;;1.40;;
10605;SDS011;5350;42.698;23.148;2023-01-31T14:46:21;2.47;;;2.03;;
10605;SDS011;5350;42.698;23.148;2023-01-31T14:52:10;2.37;;;1.20;;
10605;SDS011;5350;42.698;23.148;2023-01-31T14:54:59;2.80;;;1.60;;
10605;SDS011;5350;42.698;23.148;2023-01-31T14:57:38;3.03;;;2.60;;
10605;SDS011;5350;42.698;23.148;2023-01-31T15:00:14;3.50;;;2.00;;
10605;SDS011;5350;42.698;23.148;2023-01-31T15:02:51;2.00;;;1.80;;
10605;SDS011;5350;42.698;23.148;2023-01-31T15:05:24;3.33;;;2.77;;
10605;SDS011;5350;42.698;23.148;2023-01-31T15:08:06;2.03;;;1.63;;
10605;SDS011;5350;42.698;23.148;2023-01-31T15:11:03;4.53;;;3.47;;
10605;SDS011;5350;42.698;23.148;2023-01-31T15:13:44;6.13;;;3.87;;
10605;SDS011;5350;42.698;23.148;2023-01-31T15:16:18;2.87;;;2.37;;
10605;SDS011;5350;42.698;23.148;2023-01-31T15:18:49;3.00;;;2.57;;
10605;SDS011;5350;42.698;23.148;2023-01-31T15:21:20;3.43;;;2.50;;
10605;SDS011;5350;42.698;23.148;2023-01-31T15:23:50;2.77;;;2.50;;
10605;SDS011;5350;42.698;23.148;2023-01-31T15:26:19;3.37;;;2.57;;
10605;SDS011;5350;42.698;23.148;2023-01-31T15:28:48;3.43;;;1.97;;
10605;SDS011;5350;42.698;23.148;2023-01-31T15:31:18;2.43;;;2.23;;
10605;SDS011;5350;42.698;23.148;2023-01-31T15:33:52;5.70;;;1.63;;
10605;SDS011;5350;42.698;23.148;2023-01-31T15:36:24;3.83;;;1.60;;
10605;SDS011;5350;42.698;23.148;2023-01-31T15:38:56;1.27;;;0.87;;
10605;SDS011;5350;42.698;23.148;2023-01-31T15:41:34;3.53;;;2.53;;
10605;SDS011;5350;42.698;23.148;2023-01-31T15:44:09;3.80;;;2.63;;